Time,TemperatureF,DewpointF,PressureIn,WindDirection,WindDirectionDegrees,WindSpeedMPH,WindSpeedGustMPH,Humidity,HourlyPrecipIn,Conditions,Clouds,dailyrainin,SoftwareType,DateUTC
2013-02-03 00:00:00,36.9,34.0,30.23,NW,305,0.0,1.0,89,0.03,,,0.03,VWS V14.01,2013-02-03 05:00:00,
2013-02-03 00:01:00,37.0,34.1,30.24,NW,305,0.0,1.0,89,0.03,,,0.03,VWS V14.01,2013-02-03 05:01:00,
2013-02-03 00:02:00,37.0,34.1,30.24,NW,305,0.0,1.0,89,0.03,,,0.03,VWS V14.01,2013-02-03 05:02:00,
2013-02-03 00:03:00,36.9,34.0,30.24,NW,305,0.0,1.0,89,0.03,,,0.03,VWS V14.01,2013-02-03 05:03:00,
2013-02-03 00:09:00,36.9,34.0,30.23,NW,305,0.0,0.0,89,0.01,,,0.00,VWS V14.01,2013-02-03 05:09:00,
2013-02-03 00:15:00,36.8,33.9,30.23,NW,304,0.0,0.0,89,0.01,,,0.00,VWS V14.01,2013-02-03 05:15:00,
2013-02-03 00:17:00,36.8,33.9,30.23,NW,305,0.0,0.0,89,0.01,,,0.00,VWS V14.01,2013-02-03 05:17:00,
2013-02-03 00:23:00,36.8,34.2,30.23,NW,304,0.0,0.0,90,0.01,,,0.00,VWS V14.01,2013-02-03 05:23:00,
2013-02-03 00:29:00,36.7,34.0,30.23,NW,304,0.0,0.0,90,0.01,,,0.00,VWS V14.01,2013-02-03 05:29:00,
2013-02-03 00:30:00,36.6,34.0,30.23,NW,305,0.0,0.0,90,0.01,,,0.00,VWS V14.01,2013-02-03 05:30:00,
2013-02-03 00:35:00,36.7,34.0,30.23,NW,305,0.0,0.0,90,0.00,,,0.00,VWS V14.01,2013-02-03 05:35:00,
2013-02-03 00:40:00,36.6,34.0,30.22,NW,305,0.0,0.0,90,0.00,,,0.00,VWS V14.01,2013-02-03 05:40:00,
2013-02-03 00:46:00,36.6,34.0,30.22,NW,305,0.0,0.0,90,0.00,,,0.00,VWS V14.01,2013-02-03 05:46:00,
2013-02-03 00:52:00,36.6,34.0,30.22,NW,305,0.0,0.0,90,0.00,,,0.00,VWS V14.01,2013-02-03 05:52:00,
2013-02-03 00:58:00,36.6,34.0,30.21,NW,305,0.0,0.0,90,0.00,,,0.00,VWS V14.01,2013-02-03 05:58:00,
2013-02-03 01:00:00,36.6,34.0,30.20,NW,304,0.0,0.0,90,0.00,,,0.00,VWS V14.01,2013-02-03 06:00:00,
2013-02-03 01:03:00,36.6,34.0,30.21,NW,305,0.0,0.0,90,0.00,,,0.00,VWS V14.01,2013-02-03 06:03:00,
2013-02-03 01:09:00,36.5,33.8,30.20,NW,304,0.0,0.0,90,0.00,,,0.00,VWS V14.01,2013-02-03 06:09:00,
2013-02-03 01:15:00,36.5,34.1,30.20,NW,305,0.0,0.0,91,0.00,,,0.00,VWS V14.01,2013-02-03 06:15:00,
2013-02-03 01:21:00,36.5,34.1,30.20,NW,305,0.0,0.0,91,0.00,,,0.00,VWS V14.01,2013-02-03 06:21:00,
2013-02-03 01:27:00,36.5,34.1,30.20,NW,305,0.0,0.0,91,0.00,,,0.00,VWS V14.01,2013-02-03 06:27:00,
2013-02-03 01:30:00,36.4,34.0,30.19,NW,304,0.0,0.0,91,0.00,,,0.00,VWS V14.01,2013-02-03 06:30:00,
2013-02-03 01:33:00,36.4,34.0,30.19,NW,305,0.0,0.0,91,0.00,,,0.00,VWS V14.01,2013-02-03 06:33:00,
2013-02-03 01:38:00,36.4,34.0,30.19,NW,305,0.0,0.0,91,0.00,,,0.00,VWS V14.01,2013-02-03 06:38:00,
2013-02-03 01:44:00,36.3,33.9,30.18,NW,305,0.0,0.0,91,0.00,,,0.00,VWS V14.01,2013-02-03 06:44:00,
2013-02-03 01:50:00,36.2,33.8,30.18,NW,304,0.0,0.0,91,0.00,,,0.00,VWS V14.01,2013-02-03 06:50:00,
2013-02-03 01:56:00,36.2,33.8,30.18,NW,305,0.0,0.0,91,0.00,,,0.00,VWS V14.01,2013-02-03 06:56:00,
2013-02-03 02:00:00,36.0,33.6,30.19,NW,305,0.0,0.0,91,0.00,,,0.00,VWS V14.01,2013-02-03 07:00:00,
2013-02-03 02:02:00,36.1,33.7,30.19,NW,304,0.0,0.0,91,0.00,,,0.00,VWS V14.01,2013-02-03 07:02:00,
2013-02-03 02:08:00,35.9,33.5,30.19,NW,305,0.0,0.0,91,0.00,,,0.00,VWS V14.01,2013-02-03 07:08:00,
2013-02-03 02:14:00,35.7,33.3,30.18,NW,305,0.0,0.0,91,0.00,,,0.00,VWS V14.01,2013-02-03 07:14:00,
2013-02-03 02:19:00,35.5,33.1,30.18,NW,305,0.0,0.0,91,0.00,,,0.00,VWS V14.01,2013-02-03 07:19:00,
2013-02-03 02:25:00,35.3,32.9,30.18,NW,304,0.0,0.0,91,0.00,,,0.00,VWS V14.01,2013-02-03 07:25:00,
2013-02-03 02:30:00,35.0,32.6,30.17,NW,304,0.0,0.0,91,0.00,,,0.00,VWS V14.01,2013-02-03 07:30:00,
2013-02-03 02:31:00,35.1,32.7,30.17,NW,305,0.0,0.0,91,0.00,,,0.00,VWS V14.01,2013-02-03 07:31:00,
2013-02-03 02:37:00,34.9,32.3,30.17,NW,304,0.0,0.0,90,0.00,,,0.00,VWS V14.01,2013-02-03 07:37:00,
2013-02-03 02:43:00,34.7,32.1,30.17,NW,305,0.0,0.0,90,0.00,,,0.00,VWS V14.01,2013-02-03 07:43:00,
2013-02-03 02:49:00,34.4,31.8,30.17,NW,304,0.0,0.0,90,0.00,,,0.00,VWS V14.01,2013-02-03 07:49:00,
2013-02-03 02:54:00,34.3,31.7,30.17,NW,305,0.0,0.0,90,0.00,,,0.00,VWS V14.01,2013-02-03 07:54:00,
2013-02-03 03:00:00,34.1,31.5,30.16,NW,305,0.0,0.0,90,0.00,,,0.00,VWS V14.01,2013-02-03 08:00:00,
2013-02-03 03:06:00,33.8,31.2,30.16,NW,304,0.0,0.0,90,0.00,,,0.00,VWS V14.01,2013-02-03 08:06:00,
2013-02-03 03:12:00,33.5,30.9,30.16,NW,305,0.0,0.0,90,0.00,,,0.00,VWS V14.01,2013-02-03 08:12:00,
2013-02-03 03:17:00,33.3,30.7,30.16,NW,305,0.0,0.0,90,0.00,,,0.00,VWS V14.01,2013-02-03 08:17:00,
2013-02-03 03:23:00,33.1,30.5,30.15,NW,305,0.0,0.0,90,0.00,,,0.00,VWS V14.01,2013-02-03 08:23:00,
2013-02-03 03:29:00,32.9,30.3,30.15,NW,305,0.0,0.0,90,0.00,,,0.00,VWS V14.01,2013-02-03 08:29:00,
2013-02-03 03:30:00,32.8,30.2,30.15,NW,305,0.0,0.0,90,0.00,,,0.00,VWS V14.01,2013-02-03 08:30:00,
2013-02-03 03:35:00,32.8,30.2,30.15,NW,305,0.0,0.0,90,0.00,,,0.00,VWS V14.01,2013-02-03 08:35:00,
2013-02-03 03:40:00,32.7,30.1,30.15,NW,304,0.0,0.0,90,0.00,,,0.00,VWS V14.01,2013-02-03 08:40:00,
2013-02-03 03:46:00,32.6,30.0,30.14,NW,305,0.0,0.0,90,0.00,,,0.00,VWS V14.01,2013-02-03 08:46:00,
2013-02-03 03:51:00,32.5,30.2,30.14,NW,305,0.0,0.0,91,0.00,,,0.00,VWS V14.01,2013-02-03 08:51:00,
2013-02-03 03:57:00,32.5,30.2,30.14,NW,304,0.0,0.0,91,0.00,,,0.00,VWS V14.01,2013-02-03 08:57:00,
2013-02-03 04:00:00,32.4,30.1,30.14,NW,304,0.0,0.0,91,0.00,,,0.00,VWS V14.01,2013-02-03 09:00:00,
2013-02-03 04:03:00,32.5,30.2,30.14,NW,305,0.0,0.0,91,0.00,,,0.00,VWS V14.01,2013-02-03 09:03:00,
2013-02-03 04:09:00,32.5,30.2,30.14,NW,305,0.0,0.0,91,0.00,,,0.00,VWS V14.01,2013-02-03 09:09:00,
2013-02-03 04:15:00,32.5,30.2,30.14,NW,304,0.0,0.0,91,0.00,,,0.00,VWS V14.01,2013-02-03 09:15:00,
2013-02-03 04:20:00,32.5,30.4,30.13,NW,305,0.0,0.0,92,0.00,,,0.00,VWS V14.01,2013-02-03 09:20:00,
2013-02-03 04:26:00,32.5,30.4,30.13,NW,305,0.0,0.0,92,0.00,,,0.00,VWS V14.01,2013-02-03 09:26:00,
2013-02-03 04:30:00,32.6,30.5,30.13,NW,305,0.0,0.0,92,0.00,,,0.00,VWS V14.01,2013-02-03 09:30:00,
2013-02-03 04:32:00,32.6,30.5,30.13,NW,304,0.0,0.0,92,0.00,,,0.00,VWS V14.01,2013-02-03 09:32:00,
2013-02-03 04:38:00,32.6,30.5,30.13,NW,305,0.0,0.0,92,0.00,,,0.00,VWS V14.01,2013-02-03 09:38:00,
2013-02-03 04:43:00,32.7,30.6,30.13,NW,305,0.0,0.0,92,0.00,,,0.00,VWS V14.01,2013-02-03 09:43:00,
2013-02-03 04:49:00,32.7,30.6,30.13,NW,305,0.0,0.0,92,0.00,,,0.00,VWS V14.01,2013-02-03 09:49:00,
2013-02-03 04:55:00,32.8,30.7,30.13,NW,304,0.0,0.0,92,0.00,,,0.00,VWS V14.01,2013-02-03 09:55:00,
2013-02-03 05:00:00,32.9,31.1,30.13,NW,304,0.0,0.0,93,0.00,,,0.00,VWS V14.01,2013-02-03 10:00:00,
2013-02-03 05:01:00,32.8,30.7,30.13,NW,305,0.0,0.0,92,0.00,,,0.00,VWS V14.01,2013-02-03 10:01:00,
2013-02-03 05:07:00,33.0,31.2,30.13,NW,304,0.0,0.0,93,0.00,,,0.00,VWS V14.01,2013-02-03 10:07:00,
2013-02-03 05:12:00,33.0,31.2,30.13,NW,304,0.0,0.0,93,0.00,,,0.00,VWS V14.01,2013-02-03 10:12:00,
2013-02-03 05:18:00,33.1,31.3,30.12,NW,305,0.0,0.0,93,0.00,,,0.00,VWS V14.01,2013-02-03 10:18:00,
2013-02-03 05:24:00,33.2,31.4,30.12,NW,305,0.0,0.0,93,0.00,,,0.00,VWS V14.01,2013-02-03 10:24:00,
2013-02-03 05:30:00,33.2,31.4,30.12,NW,305,0.0,0.0,93,0.00,,,0.00,VWS V14.01,2013-02-03 10:30:00,
2013-02-03 05:35:00,33.3,31.5,30.12,NW,305,0.0,0.0,93,0.00,,,0.00,VWS V14.01,2013-02-03 10:35:00,
2013-02-03 05:41:00,33.3,31.5,30.13,NW,305,0.0,0.0,93,0.00,,,0.00,VWS V14.01,2013-02-03 10:41:00,
2013-02-03 05:47:00,33.3,31.5,30.13,NW,305,0.0,0.0,93,0.00,,,0.00,VWS V14.01,2013-02-03 10:47:00,
2013-02-03 05:53:00,33.3,31.5,30.13,NW,304,0.0,0.0,93,0.00,,,0.00,VWS V14.01,2013-02-03 10:53:00,
2013-02-03 05:59:00,33.3,31.5,30.13,NW,304,0.0,0.0,93,0.00,,,0.00,VWS V14.01,2013-02-03 10:59:00,
2013-02-03 06:00:00,33.3,31.5,30.13,NW,304,0.0,0.0,93,0.00,,,0.00,VWS V14.01,2013-02-03 11:00:00,
2013-02-03 06:04:00,33.3,31.5,30.13,NW,304,0.0,0.0,93,0.00,,,0.00,VWS V14.01,2013-02-03 11:04:00,
2013-02-03 06:10:00,33.3,31.5,30.13,NW,305,0.0,0.0,93,0.00,,,0.00,VWS V14.01,2013-02-03 11:10:00,
2013-02-03 06:16:00,33.3,31.8,30.13,NW,304,0.0,0.0,94,0.00,,,0.00,VWS V14.01,2013-02-03 11:16:00,
2013-02-03 06:22:00,33.4,31.9,30.13,NW,305,0.0,0.0,94,0.00,,,0.00,VWS V14.01,2013-02-03 11:22:00,
2013-02-03 06:27:00,33.4,31.9,30.13,NW,304,0.0,0.0,94,0.00,,,0.00,VWS V14.01,2013-02-03 11:27:00,
2013-02-03 06:30:00,33.4,31.9,30.13,NW,304,0.0,0.0,94,0.00,,,0.00,VWS V14.01,2013-02-03 11:30:00,
2013-02-03 06:33:00,33.4,31.9,30.13,NW,304,0.0,0.0,94,0.00,,,0.00,VWS V14.01,2013-02-03 11:33:00,
2013-02-03 06:39:00,33.4,31.9,30.13,NW,304,0.0,0.0,94,0.00,,,0.00,VWS V14.01,2013-02-03 11:39:00,
2013-02-03 06:44:00,33.3,31.8,30.13,NW,305,0.0,0.0,94,0.00,,,0.00,VWS V14.01,2013-02-03 11:44:00,
2013-02-03 06:50:00,33.2,31.7,30.13,NW,304,0.0,0.0,94,0.00,,,0.00,VWS V14.01,2013-02-03 11:50:00,
2013-02-03 06:56:00,33.1,31.6,30.13,NW,305,0.0,0.0,94,0.00,,,0.00,VWS V14.01,2013-02-03 11:56:00,
2013-02-03 07:00:00,32.8,31.0,30.14,NW,305,0.0,0.0,93,0.00,,,0.00,VWS V14.01,2013-02-03 12:00:00,
2013-02-03 07:02:00,32.9,31.1,30.14,NW,305,0.0,0.0,93,0.00,,,0.00,VWS V14.01,2013-02-03 12:02:00,
2013-02-03 07:08:00,32.7,30.9,30.14,NW,305,0.0,0.0,93,0.00,,,0.00,VWS V14.01,2013-02-03 12:08:00,
2013-02-03 07:13:00,32.5,31.0,30.14,NW,305,0.0,0.0,94,0.00,,,0.00,VWS V14.01,2013-02-03 12:13:00,
2013-02-03 07:19:00,32.3,30.8,30.14,NW,304,0.0,0.0,94,0.00,,,0.00,VWS V14.01,2013-02-03 12:19:00,
2013-02-03 07:25:00,32.1,30.3,30.14,NW,304,0.0,0.0,93,0.00,,,0.00,VWS V14.01,2013-02-03 12:25:00,
2013-02-03 07:30:00,31.7,29.9,30.14,NW,305,0.0,0.0,93,0.00,,,0.00,VWS V14.01,2013-02-03 12:30:00,
2013-02-03 07:31:00,31.9,30.1,30.14,NW,304,0.0,0.0,93,0.00,,,0.00,VWS V14.01,2013-02-03 12:31:00,
2013-02-03 07:36:00,31.6,29.8,30.14,NW,304,0.0,0.0,93,0.00,,,0.00,VWS V14.01,2013-02-03 12:36:00,
2013-02-03 07:42:00,31.4,29.6,30.14,NW,305,0.0,0.0,93,0.00,,,0.00,VWS V14.01,2013-02-03 12:42:00,
2013-02-03 07:48:00,31.1,29.3,30.14,NW,305,0.0,0.0,93,0.00,,,0.00,VWS V14.01,2013-02-03 12:48:00,
2013-02-03 07:54:00,31.0,29.2,30.14,NW,305,0.0,0.0,93,0.00,,,0.00,VWS V14.01,2013-02-03 12:54:00,
2013-02-03 08:00:00,30.8,29.0,30.14,NW,304,0.0,0.0,93,0.00,,,0.00,VWS V14.01,2013-02-03 13:00:00,
2013-02-03 08:06:00,30.7,28.9,30.14,NW,305,0.0,0.0,93,0.00,,,0.00,VWS V14.01,2013-02-03 13:06:00,
2013-02-03 08:11:00,30.6,28.8,30.14,NW,305,0.0,0.0,93,0.00,,,0.00,VWS V14.01,2013-02-03 13:11:00,
2013-02-03 08:17:00,30.7,28.9,30.15,NW,305,0.0,0.0,93,0.00,,,0.00,VWS V14.01,2013-02-03 13:17:00,
2013-02-03 08:23:00,31.5,30.0,30.14,NW,304,0.0,0.0,94,0.00,,,0.00,VWS V14.01,2013-02-03 13:23:00,
2013-02-03 08:29:00,32.6,31.3,30.14,NW,305,0.0,0.0,95,0.00,,,0.00,VWS V14.01,2013-02-03 13:29:00,
2013-02-03 08:30:00,33.5,32.2,30.14,NW,305,0.0,0.0,95,0.00,,,0.00,VWS V14.01,2013-02-03 13:30:00,
2013-02-03 08:35:00,33.5,32.2,30.14,NW,305,0.0,0.0,95,0.00,,,0.00,VWS V14.01,2013-02-03 13:35:00,
2013-02-03 08:40:00,34.2,32.9,30.15,NW,305,0.0,0.0,95,0.00,,,0.00,VWS V14.01,2013-02-03 13:40:00,
2013-02-03 08:46:00,34.6,33.3,30.15,NW,304,0.0,0.0,95,0.00,,,0.00,VWS V14.01,2013-02-03 13:46:00,
2013-02-03 08:52:00,35.1,33.8,30.15,NW,305,0.0,0.0,95,0.00,,,0.00,VWS V14.01,2013-02-03 13:52:00,
2013-02-03 08:58:00,35.4,34.1,30.15,WNW,300,0.0,0.0,95,0.00,,,0.00,VWS V14.01,2013-02-03 13:58:00,
2013-02-03 09:00:00,35.9,34.3,30.15,West,273,0.0,3.0,94,0.00,,,0.00,VWS V14.01,2013-02-03 14:00:00,
2013-02-03 09:03:00,35.7,34.2,30.15,West,273,0.0,3.0,94,0.00,,,0.00,VWS V14.01,2013-02-03 14:03:00,
2013-02-03 09:09:00,36.4,34.6,30.15,West,280,0.0,1.0,93,0.00,,,0.00,VWS V14.01,2013-02-03 14:09:00,
2013-02-03 09:15:00,37.0,34.9,30.15,WSW,248,0.0,4.0,92,0.00,,,0.00,VWS V14.01,2013-02-03 14:15:00,
2013-02-03 09:21:00,37.6,34.9,30.16,WNW,284,0.0,4.0,90,0.00,,,0.00,VWS V14.01,2013-02-03 14:21:00,
2013-02-03 09:27:00,38.0,34.2,30.15,NW,317,0.0,7.0,86,0.00,,,0.00,VWS V14.01,2013-02-03 14:27:00,
2013-02-03 09:30:00,38.5,33.8,30.16,West,275,0.0,7.0,83,0.00,,,0.00,VWS V14.01,2013-02-03 14:30:00,
2013-02-03 09:32:00,38.4,34.0,30.16,WSW,240,0.0,7.0,84,0.00,,,0.00,VWS V14.01,2013-02-03 14:32:00,
2013-02-03 09:38:00,39.3,34.3,30.15,NNE,13,0.0,1.0,82,0.00,,,0.00,VWS V14.01,2013-02-03 14:38:00,
2013-02-03 09:44:00,40.3,33.7,30.15,NW,310,0.0,5.0,77,0.00,,,0.00,VWS V14.01,2013-02-03 14:44:00,
2013-02-03 09:50:00,40.3,33.0,30.15,NE,48,2.0,5.0,75,0.00,,,0.00,VWS V14.01,2013-02-03 14:50:00,
2013-02-03 09:55:00,40.6,32.3,30.15,SW,217,0.0,6.0,72,0.00,,,0.00,VWS V14.01,2013-02-03 14:55:00,
2013-02-03 10:00:00,41.2,31.5,30.14,NNW,332,0.0,6.0,68,0.00,,,0.00,VWS V14.01,2013-02-03 15:00:00,
2013-02-03 10:01:00,41.0,32.0,30.14,NW,314,0.0,6.0,70,0.00,,,0.00,VWS V14.01,2013-02-03 15:01:00,
2013-02-03 10:07:00,41.0,30.5,30.14,North,360,0.0,0.0,66,0.00,,,0.00,VWS V14.01,2013-02-03 15:07:00,
2013-02-03 10:13:00,40.9,31.2,30.14,West,261,0.0,6.0,68,0.00,,,0.00,VWS V14.01,2013-02-03 15:13:00,
2013-02-03 10:19:00,41.6,32.2,30.14,WNW,302,0.0,6.0,69,0.00,,,0.00,VWS V14.01,2013-02-03 15:19:00,
2013-02-03 10:24:00,42.0,30.7,30.14,North,5,3.0,6.0,64,0.00,,,0.00,VWS V14.01,2013-02-03 15:24:00,
2013-02-03 10:30:00,41.7,29.7,30.14,NNW,329,0.0,6.0,62,0.00,,,0.00,VWS V14.01,2013-02-03 15:30:00,
2013-02-03 10:36:00,41.5,29.5,30.14,WNW,284,6.0,6.0,62,0.00,,,0.00,VWS V14.01,2013-02-03 15:36:00,
2013-02-03 10:42:00,41.2,29.6,30.14,WSW,255,0.0,7.0,63,0.00,,,0.00,VWS V14.01,2013-02-03 15:42:00,
2013-02-03 10:48:00,41.3,29.7,30.14,SW,227,2.0,7.0,63,0.00,,,0.00,VWS V14.01,2013-02-03 15:48:00,
2013-02-03 10:53:00,41.5,29.5,30.14,SW,230,2.0,9.0,62,0.00,,,0.00,VWS V14.01,2013-02-03 15:53:00,
2013-02-03 10:59:00,41.5,29.1,30.14,SW,219,5.0,9.0,61,0.00,,,0.00,VWS V14.01,2013-02-03 15:59:00,
2013-02-03 11:00:00,42.1,30.8,30.14,ENE,57,0.0,9.0,64,0.00,,,0.00,VWS V14.01,2013-02-03 16:00:00,
2013-02-03 11:05:00,42.1,30.8,30.14,ENE,57,0.0,9.0,64,0.00,,,0.00,VWS V14.01,2013-02-03 16:05:00,
2013-02-03 11:10:00,42.8,29.9,30.14,SW,227,6.0,6.0,60,0.00,,,0.00,VWS V14.01,2013-02-03 16:10:00,
2013-02-03 11:16:00,42.6,29.3,30.13,WSW,243,0.0,6.0,59,0.00,,,0.00,VWS V14.01,2013-02-03 16:16:00,
2013-02-03 11:22:00,42.7,29.4,30.14,SSW,209,4.0,10.0,59,0.00,,,0.00,VWS V14.01,2013-02-03 16:22:00,
2013-02-03 11:27:00,43.3,29.1,30.13,North,360,0.0,10.0,57,0.00,,,0.00,VWS V14.01,2013-02-03 16:27:00,
2013-02-03 11:30:00,43.6,30.2,30.13,West,276,0.0,10.0,59,0.00,,,0.00,VWS V14.01,2013-02-03 16:30:00,
2013-02-03 11:33:00,43.4,29.2,30.13,NNE,16,2.0,10.0,57,0.00,,,0.00,VWS V14.01,2013-02-03 16:33:00,
2013-02-03 11:39:00,44.2,30.8,30.12,SW,225,1.0,5.0,59,0.00,,,0.00,VWS V14.01,2013-02-03 16:39:00,
2013-02-03 11:45:00,44.3,29.6,30.12,SW,224,2.0,7.0,56,0.00,,,0.00,VWS V14.01,2013-02-03 16:45:00,
2013-02-03 11:50:00,44.0,28.9,30.12,SSW,207,2.0,9.0,55,0.00,,,0.00,VWS V14.01,2013-02-03 16:50:00,
2013-02-03 11:56:00,43.8,30.0,30.12,SSW,212,0.0,9.0,58,0.00,,,0.00,VWS V14.01,2013-02-03 16:56:00,
2013-02-03 12:00:00,44.0,31.0,30.11,WNW,294,0.0,9.0,60,0.00,,,0.00,VWS V14.01,2013-02-03 17:00:00,
2013-02-03 12:02:00,43.7,29.9,30.11,SW,218,0.0,9.0,58,0.00,,,0.00,VWS V14.01,2013-02-03 17:02:00,
2013-02-03 12:07:00,44.4,31.8,30.11,SSW,209,0.0,4.0,61,0.00,,,0.00,VWS V14.01,2013-02-03 17:07:00,
2013-02-03 12:13:00,44.6,29.9,30.11,NW,311,0.0,7.0,56,0.00,,,0.00,VWS V14.01,2013-02-03 17:13:00,
2013-02-03 12:19:00,44.5,29.4,30.10,NW,322,3.0,7.0,55,0.00,,,0.00,VWS V14.01,2013-02-03 17:19:00,
2013-02-03 12:25:00,45.0,29.4,30.11,North,355,2.0,8.0,54,0.00,,,0.00,VWS V14.01,2013-02-03 17:25:00,
2013-02-03 12:30:00,45.8,30.6,30.10,SSW,203,3.0,8.0,55,0.00,,,0.00,VWS V14.01,2013-02-03 17:30:00,
2013-02-03 12:36:00,46.0,31.2,30.09,SSE,150,0.0,4.0,56,0.00,,,0.00,VWS V14.01,2013-02-03 17:36:00,
2013-02-03 12:42:00,46.9,30.2,30.09,NW,319,5.0,7.0,52,0.00,,,0.00,VWS V14.01,2013-02-03 17:42:00,
2013-02-03 12:48:00,45.7,28.6,30.08,West,270,0.0,11.0,51,0.00,,,0.00,VWS V14.01,2013-02-03 17:48:00,
2013-02-03 12:54:00,46.4,30.7,30.08,SW,234,4.0,11.0,54,0.00,,,0.00,VWS V14.01,2013-02-03 17:54:00,
2013-02-03 13:00:00,46.9,30.7,30.07,SW,232,1.0,11.0,53,0.00,,,0.00,VWS V14.01,2013-02-03 18:00:00,
2013-02-03 13:05:00,46.5,30.3,30.07,North,10,7.0,11.0,53,0.00,,,0.00,VWS V14.01,2013-02-03 18:05:00,
2013-02-03 13:10:00,46.7,31.0,30.07,SW,216,1.0,8.0,54,0.00,,,0.00,VWS V14.01,2013-02-03 18:10:00,
2013-02-03 13:16:00,46.8,30.6,30.06,East,97,0.0,8.0,53,0.00,,,0.00,VWS V14.01,2013-02-03 18:16:00,
2013-02-03 13:22:00,47.5,30.3,30.06,NW,309,3.0,9.0,51,0.00,,,0.00,VWS V14.01,2013-02-03 18:22:00,
2013-02-03 13:27:00,47.9,30.7,30.06,NW,309,2.0,9.0,51,0.00,,,0.00,VWS V14.01,2013-02-03 18:27:00,
2013-02-03 13:30:00,47.6,30.4,30.06,NNW,330,0.0,9.0,51,0.00,,,0.00,VWS V14.01,2013-02-03 18:30:00,
2013-02-03 13:33:00,47.7,30.5,30.06,SW,223,0.0,9.0,51,0.00,,,0.00,VWS V14.01,2013-02-03 18:33:00,
2013-02-03 13:39:00,47.2,30.5,30.05,SSW,207,0.0,9.0,52,0.00,,,0.00,VWS V14.01,2013-02-03 18:39:00,
2013-02-03 13:45:00,47.3,31.5,30.05,WNW,292,0.0,9.0,54,0.00,,,0.00,VWS V14.01,2013-02-03 18:45:00,
2013-02-03 13:50:00,47.1,31.3,30.05,SW,234,0.0,9.0,54,0.00,,,0.00,VWS V14.01,2013-02-03 18:50:00,
2013-02-03 13:56:00,47.2,31.0,30.05,SSE,157,5.0,9.0,53,0.00,,,0.00,VWS V14.01,2013-02-03 18:56:00,
2013-02-03 14:00:00,47.3,30.6,30.05,West,259,2.0,9.0,52,0.00,,,0.00,VWS V14.01,2013-02-03 19:00:00,
2013-02-03 14:02:00,47.2,30.0,30.05,WNW,287,0.0,9.0,51,0.00,,,0.00,VWS V14.01,2013-02-03 19:02:00,
2013-02-03 14:08:00,47.3,30.1,30.05,SW,228,0.0,5.0,51,0.00,,,0.00,VWS V14.01,2013-02-03 19:08:00,
2013-02-03 14:13:00,47.1,29.9,30.04,WSW,239,0.0,5.0,51,0.00,,,0.00,VWS V14.01,2013-02-03 19:13:00,
2013-02-03 14:19:00,47.0,29.8,30.04,WSW,246,0.0,6.0,51,0.00,,,0.00,VWS V14.01,2013-02-03 19:19:00,
2013-02-03 14:25:00,46.9,30.2,30.04,NW,314,0.0,7.0,52,0.00,,,0.00,VWS V14.01,2013-02-03 19:25:00,
2013-02-03 14:30:00,46.9,30.7,30.04,NNW,333,0.0,7.0,53,0.00,,,0.00,VWS V14.01,2013-02-03 19:30:00,
2013-02-03 14:31:00,46.9,30.2,30.04,SW,227,0.0,7.0,52,0.00,,,0.00,VWS V14.01,2013-02-03 19:31:00,
2013-02-03 14:37:00,46.9,30.7,30.04,NW,319,5.0,5.0,53,0.00,,,0.00,VWS V14.01,2013-02-03 19:37:00,
2013-02-03 14:42:00,47.0,30.8,30.04,NNE,15,2.0,5.0,53,0.00,,,0.00,VWS V14.01,2013-02-03 19:42:00,
2013-02-03 14:48:00,46.9,30.2,30.05,SW,214,5.0,7.0,52,0.00,,,0.00,VWS V14.01,2013-02-03 19:48:00,
2013-02-03 14:54:00,46.8,30.1,30.05,WNW,301,0.0,11.0,52,0.00,,,0.00,VWS V14.01,2013-02-03 19:54:00,
2013-02-03 15:00:00,46.8,30.6,30.05,North,360,0.0,11.0,53,0.00,,,0.00,VWS V14.01,2013-02-03 20:00:00,
2013-02-03 15:06:00,47.0,31.2,30.05,NW,313,0.0,3.0,54,0.00,,,0.00,VWS V14.01,2013-02-03 20:06:00,
2013-02-03 15:12:00,47.6,31.8,30.05,WSW,246,0.0,6.0,54,0.00,,,0.00,VWS V14.01,2013-02-03 20:12:00,
2013-02-03 15:17:00,48.3,31.5,30.04,NNW,346,0.0,6.0,52,0.00,,,0.00,VWS V14.01,2013-02-03 20:17:00,
2013-02-03 15:23:00,48.4,31.1,30.04,NW,321,0.0,6.0,51,0.00,,,0.00,VWS V14.01,2013-02-03 20:23:00,
2013-02-03 15:29:00,48.4,32.1,30.05,SSW,202,0.0,6.0,53,0.00,,,0.00,VWS V14.01,2013-02-03 20:29:00,
2013-02-03 15:30:00,48.2,30.9,30.05,WNW,300,0.0,11.0,51,0.00,,,0.00,VWS V14.01,2013-02-03 20:30:00,
2013-02-03 15:35:00,48.2,30.9,30.05,West,263,0.0,11.0,51,0.00,,,0.00,VWS V14.01,2013-02-03 20:35:00,
2013-02-03 15:40:00,48.1,29.9,30.05,WNW,300,0.0,9.0,49,0.00,,,0.00,VWS V14.01,2013-02-03 20:40:00,
2013-02-03 15:46:00,47.9,31.1,30.05,SW,221,0.0,9.0,52,0.00,,,0.00,VWS V14.01,2013-02-03 20:46:00,
2013-02-03 15:52:00,48.2,30.5,30.05,NW,325,2.0,10.0,50,0.00,,,0.00,VWS V14.01,2013-02-03 20:52:00,
2013-02-03 15:58:00,48.6,30.3,30.06,WNW,296,2.0,10.0,49,0.00,,,0.00,VWS V14.01,2013-02-03 20:58:00,
2013-02-03 16:00:00,48.4,29.1,30.06,NNW,340,0.0,10.0,47,0.00,,,0.00,VWS V14.01,2013-02-03 21:00:00,
2013-02-03 16:04:00,48.5,29.7,30.06,West,263,1.0,10.0,48,0.00,,,0.00,VWS V14.01,2013-02-03 21:04:00,
2013-02-03 16:09:00,48.1,28.3,30.06,North,5,5.0,10.0,46,0.00,,,0.00,VWS V14.01,2013-02-03 21:09:00,
2013-02-03 16:15:00,47.5,27.8,30.06,NNE,30,3.0,13.0,46,0.00,,,0.00,VWS V14.01,2013-02-03 21:15:00,
2013-02-03 16:21:00,47.0,27.8,30.07,West,262,3.0,13.0,47,0.00,,,0.00,VWS V14.01,2013-02-03 21:21:00,
2013-02-03 16:27:00,46.8,27.6,30.07,SSW,209,2.0,13.0,47,0.00,,,0.00,VWS V14.01,2013-02-03 21:27:00,
2013-02-03 16:30:00,46.7,27.0,30.07,West,271,0.0,13.0,46,0.00,,,0.00,VWS V14.01,2013-02-03 21:30:00,
2013-02-03 16:32:00,46.7,27.0,30.07,NW,317,4.0,13.0,46,0.00,,,0.00,VWS V14.01,2013-02-03 21:32:00,
2013-02-03 16:38:00,46.6,26.9,30.07,NW,321,0.0,10.0,46,0.00,,,0.00,VWS V14.01,2013-02-03 21:38:00,
2013-02-03 16:44:00,46.4,26.8,30.07,NNW,342,4.0,11.0,46,0.00,,,0.00,VWS V14.01,2013-02-03 21:44:00,
2013-02-03 16:50:00,46.2,27.1,30.08,NNW,348,0.0,11.0,47,0.00,,,0.00,VWS V14.01,2013-02-03 21:50:00,
2013-02-03 16:56:00,45.9,27.3,30.08,NNE,28,0.0,11.0,48,0.00,,,0.00,VWS V14.01,2013-02-03 21:56:00,
2013-02-03 17:00:00,45.4,27.4,30.09,NW,325,3.0,11.0,49,0.00,,,0.00,VWS V14.01,2013-02-03 22:00:00,
2013-02-03 17:02:00,45.6,27.1,30.08,NNE,16,4.0,11.0,48,0.00,,,0.00,VWS V14.01,2013-02-03 22:02:00,
2013-02-03 17:07:00,45.3,27.3,30.09,North,355,0.0,7.0,49,0.00,,,0.00,VWS V14.01,2013-02-03 22:07:00,
2013-02-03 17:13:00,45.0,27.0,30.09,East,100,0.0,10.0,49,0.00,,,0.00,VWS V14.01,2013-02-03 22:13:00,
2013-02-03 17:19:00,45.0,27.0,30.09,NE,38,0.0,14.0,49,0.00,,,0.00,VWS V14.01,2013-02-03 22:19:00,
2013-02-03 17:25:00,44.8,26.3,30.10,NNW,338,0.0,14.0,48,0.00,,,0.00,VWS V14.01,2013-02-03 22:25:00,
2013-02-03 17:30:00,44.6,26.6,30.10,WNW,300,4.0,14.0,49,0.00,,,0.00,VWS V14.01,2013-02-03 22:30:00,
2013-02-03 17:36:00,44.5,26.5,30.10,West,276,0.0,1.0,49,0.00,,,0.00,VWS V14.01,2013-02-03 22:36:00,
2013-02-03 17:42:00,44.3,26.4,30.10,West,277,2.0,6.0,49,0.00,,,0.00,VWS V14.01,2013-02-03 22:42:00,
2013-02-03 17:48:00,44.3,26.4,30.10,NNE,15,0.0,6.0,49,0.00,,,0.00,VWS V14.01,2013-02-03 22:48:00,
2013-02-03 17:54:00,44.2,26.3,30.11,NNW,338,0.0,9.0,49,0.00,,,0.00,VWS V14.01,2013-02-03 22:54:00,
2013-02-03 17:59:00,44.0,26.1,30.11,North,350,0.0,9.0,49,0.00,,,0.00,VWS V14.01,2013-02-03 22:59:00,
2013-02-03 18:00:00,43.8,26.4,30.11,NW,311,0.0,9.0,50,0.00,,,0.00,VWS V14.01,2013-02-03 23:00:00,
2013-02-03 18:05:00,43.8,26.4,30.11,NW,311,0.0,9.0,50,0.00,,,0.00,VWS V14.01,2013-02-03 23:05:00,
2013-02-03 18:10:00,43.6,26.2,30.11,NNW,327,0.0,1.0,50,0.00,,,0.00,VWS V14.01,2013-02-03 23:10:00,
2013-02-03 18:16:00,43.3,25.9,30.12,WNW,294,0.0,4.0,50,0.00,,,0.00,VWS V14.01,2013-02-03 23:16:00,
2013-02-03 18:21:00,43.1,26.2,30.12,WNW,294,0.0,4.0,51,0.00,,,0.00,VWS V14.01,2013-02-03 23:21:00,
2013-02-03 18:27:00,42.8,25.9,30.12,NW,306,0.0,4.0,51,0.00,,,0.00,VWS V14.01,2013-02-03 23:27:00,
2013-02-03 18:30:00,42.4,26.5,30.12,NW,307,0.0,4.0,53,0.00,,,0.00,VWS V14.01,2013-02-03 23:30:00,
2013-02-03 18:33:00,42.5,26.1,30.12,NW,306,0.0,4.0,52,0.00,,,0.00,VWS V14.01,2013-02-03 23:33:00,
2013-02-03 18:39:00,42.1,27.1,30.13,NW,307,0.0,0.0,55,0.00,,,0.00,VWS V14.01,2013-02-03 23:39:00,
2013-02-03 18:44:00,41.6,26.6,30.13,NW,307,0.0,0.0,55,0.00,,,0.00,VWS V14.01,2013-02-03 23:44:00,
2013-02-03 18:50:00,41.1,27.0,30.13,NW,307,0.0,0.0,57,0.00,,,0.00,VWS V14.01,2013-02-03 23:50:00,
2013-02-03 18:56:00,40.5,26.0,30.14,North,360,0.0,7.0,56,0.00,,,0.00,VWS V14.01,2013-02-03 23:56:00,
2013-02-03 19:00:00,40.1,26.1,30.14,NNE,22,0.0,7.0,57,0.00,,,0.00,VWS V14.01,2013-02-04 00:00:00,
2013-02-03 19:02:00,40.1,26.1,30.14,NW,304,0.0,7.0,57,0.00,,,0.00,VWS V14.01,2013-02-04 00:02:00,
2013-02-03 19:08:00,40.1,26.1,30.14,NNE,22,0.0,0.0,57,0.00,,,0.00,VWS V14.01,2013-02-04 00:08:00,
2013-02-03 19:13:00,40.1,26.1,30.14,WNW,303,0.0,4.0,57,0.00,,,0.00,VWS V14.01,2013-02-04 00:13:00,
2013-02-03 19:19:00,40.0,26.4,30.15,NE,52,0.0,4.0,58,0.00,,,0.00,VWS V14.01,2013-02-04 00:19:00,
2013-02-03 19:25:00,39.8,26.7,30.15,NE,52,0.0,4.0,59,0.00,,,0.00,VWS V14.01,2013-02-04 00:25:00,
2013-02-03 19:30:00,39.4,26.7,30.15,North,349,0.0,4.0,60,0.00,,,0.00,VWS V14.01,2013-02-04 00:30:00,
2013-02-03 19:31:00,39.5,26.4,30.15,NE,52,0.0,4.0,59,0.00,,,0.00,VWS V14.01,2013-02-04 00:31:00,
2013-02-03 19:37:00,39.3,26.6,30.15,North,349,0.0,0.0,60,0.00,,,0.00,VWS V14.01,2013-02-04 00:37:00,
2013-02-03 19:42:00,39.1,26.8,30.15,North,349,0.0,0.0,61,0.00,,,0.00,VWS V14.01,2013-02-04 00:42:00,
2013-02-03 19:48:00,38.9,26.6,30.16,North,349,0.0,0.0,61,0.00,,,0.00,VWS V14.01,2013-02-04 00:48:00,
2013-02-03 19:54:00,38.6,26.7,30.16,North,349,0.0,0.0,62,0.00,,,0.00,VWS V14.01,2013-02-04 00:54:00,
2013-02-03 20:00:00,38.4,26.9,30.16,North,349,0.0,0.0,63,0.00,,,0.00,VWS V14.01,2013-02-04 01:00:00,
2013-02-03 20:06:00,38.0,26.9,30.16,North,349,0.0,0.0,64,0.00,,,0.00,VWS V14.01,2013-02-04 01:06:00,
2013-02-03 20:12:00,37.4,26.4,30.16,North,349,0.0,1.0,64,0.00,,,0.00,VWS V14.01,2013-02-04 01:12:00,
2013-02-03 20:18:00,37.0,26.0,30.16,North,351,0.0,1.0,64,0.00,,,0.00,VWS V14.01,2013-02-04 01:18:00,
2013-02-03 20:23:00,37.0,26.0,30.16,North,350,0.0,1.0,64,0.00,,,0.00,VWS V14.01,2013-02-04 01:23:00,
2013-02-03 20:29:00,37.1,25.7,30.17,WNW,292,0.0,1.0,63,0.00,,,0.00,VWS V14.01,2013-02-04 01:29:00,
2013-02-03 20:30:00,37.3,25.1,30.17,North,360,1.0,4.0,61,0.00,,,0.00,VWS V14.01,2013-02-04 01:30:00,
2013-02-03 20:35:00,37.3,25.1,30.17,NNE,23,0.0,4.0,61,0.00,,,0.00,VWS V14.01,2013-02-04 01:35:00,
2013-02-03 20:40:00,37.7,24.7,30.17,NNE,29,0.0,4.0,59,0.00,,,0.00,VWS V14.01,2013-02-04 01:40:00,
2013-02-03 20:46:00,37.9,24.5,30.17,NW,306,0.0,4.0,58,0.00,,,0.00,VWS V14.01,2013-02-04 01:46:00,
2013-02-03 20:52:00,38.2,24.3,30.17,West,263,0.0,7.0,57,0.00,,,0.00,VWS V14.01,2013-02-04 01:52:00,
2013-02-03 20:58:00,38.5,24.2,30.17,NNE,29,0.0,7.0,56,0.00,,,0.00,VWS V14.01,2013-02-04 01:58:00,
2013-02-03 21:00:00,38.8,24.0,30.17,NNE,28,0.0,8.0,55,0.00,,,0.00,VWS V14.01,2013-02-04 02:00:00,
2013-02-03 21:04:00,38.8,24.0,30.17,NNE,28,0.0,8.0,55,0.00,,,0.00,VWS V14.01,2013-02-04 02:04:00,
2013-02-03 21:10:00,38.9,23.7,30.17,North,355,0.0,8.0,54,0.00,,,0.00,VWS V14.01,2013-02-04 02:10:00,
2013-02-03 21:16:00,39.0,23.8,30.17,NNW,340,0.0,9.0,54,0.00,,,0.00,VWS V14.01,2013-02-04 02:16:00,
2013-02-03 21:21:00,38.9,23.7,30.17,North,360,4.0,9.0,54,0.00,,,0.00,VWS V14.01,2013-02-04 02:21:00,
2013-02-03 21:27:00,38.9,23.7,30.18,NNW,340,0.0,9.0,54,0.00,,,0.00,VWS V14.01,2013-02-04 02:27:00,
2013-02-03 21:30:00,38.9,23.7,30.18,NNW,344,0.0,9.0,54,0.00,,,0.00,VWS V14.01,2013-02-04 02:30:00,
2013-02-03 21:33:00,38.9,23.7,30.18,NNW,344,0.0,9.0,54,0.00,,,0.00,VWS V14.01,2013-02-04 02:33:00,
2013-02-03 21:39:00,38.9,23.7,30.18,NNW,336,0.0,14.0,54,0.00,,,0.00,VWS V14.01,2013-02-04 02:39:00,
2013-02-03 21:45:00,38.8,23.6,30.17,NNW,347,0.0,14.0,54,0.00,,,0.00,VWS V14.01,2013-02-04 02:45:00,
2013-02-03 21:51:00,38.9,23.7,30.17,NW,318,0.0,14.0,54,0.00,,,0.00,VWS V14.01,2013-02-04 02:51:00,
2013-02-03 21:56:00,38.9,23.7,30.17,NW,308,0.0,14.0,54,0.00,,,0.00,VWS V14.01,2013-02-04 02:56:00,
2013-02-03 22:00:00,38.9,23.7,30.18,WNW,300,0.0,14.0,54,0.00,,,0.00,VWS V14.01,2013-02-04 03:00:00,
2013-02-03 22:02:00,38.9,23.7,30.17,West,281,0.0,14.0,54,0.00,,,0.00,VWS V14.01,2013-02-04 03:02:00,
2013-02-03 22:08:00,38.9,23.7,30.18,WNW,292,0.0,5.0,54,0.00,,,0.00,VWS V14.01,2013-02-04 03:08:00,
2013-02-03 22:14:00,38.8,23.6,30.18,SW,225,0.0,6.0,54,0.00,,,0.00,VWS V14.01,2013-02-04 03:14:00,
2013-02-03 22:19:00,38.6,23.4,30.18,NW,321,0.0,6.0,54,0.00,,,0.00,VWS V14.01,2013-02-04 03:19:00,
2013-02-03 22:25:00,38.4,23.7,30.19,NNW,347,0.0,6.0,55,0.00,,,0.00,VWS V14.01,2013-02-04 03:25:00,
2013-02-03 22:30:00,38.1,23.4,30.19,NE,40,0.0,6.0,55,0.00,,,0.00,VWS V14.01,2013-02-04 03:30:00,
2013-02-03 22:31:00,38.2,23.5,30.18,NE,38,0.0,6.0,55,0.00,,,0.00,VWS V14.01,2013-02-04 03:31:00,
2013-02-03 22:37:00,38.0,23.7,30.19,NE,38,0.0,0.0,56,0.00,,,0.00,VWS V14.01,2013-02-04 03:37:00,
2013-02-03 22:43:00,37.7,23.4,30.19,NE,38,0.0,0.0,56,0.00,,,0.00,VWS V14.01,2013-02-04 03:43:00,
2013-02-03 22:48:00,37.3,23.5,30.18,ENE,57,0.0,3.0,57,0.00,,,0.00,VWS V14.01,2013-02-04 03:48:00,
2013-02-03 22:54:00,37.0,23.6,30.19,ENE,59,0.0,3.0,58,0.00,,,0.00,VWS V14.01,2013-02-04 03:54:00,
2013-02-03 23:00:00,36.7,24.1,30.19,NE,53,0.0,3.0,60,0.00,,,0.00,VWS V14.01,2013-02-04 04:00:00,
2013-02-03 23:06:00,36.3,23.8,30.19,SW,223,0.0,0.0,60,0.00,,,0.00,VWS V14.01,2013-02-04 04:06:00,
2013-02-03 23:12:00,36.0,23.5,30.19,West,271,0.0,1.0,60,0.00,,,0.00,VWS V14.01,2013-02-04 04:12:00,
2013-02-03 23:17:00,35.6,23.5,30.19,North,350,0.0,2.0,61,0.00,,,0.00,VWS V14.01,2013-02-04 04:17:00,
2013-02-03 23:23:00,35.4,23.3,30.19,North,350,0.0,2.0,61,0.00,,,0.00,VWS V14.01,2013-02-04 04:23:00,
2013-02-03 23:29:00,35.2,23.1,30.19,North,350,0.0,2.0,61,0.00,,,0.00,VWS V14.01,2013-02-04 04:29:00,
2013-02-03 23:30:00,35.1,23.4,30.20,North,350,0.0,2.0,62,0.00,,,0.00,VWS V14.01,2013-02-04 04:30:00,
2013-02-03 23:35:00,35.1,23.4,30.20,North,350,0.0,2.0,62,0.00,,,0.00,VWS V14.01,2013-02-04 04:35:00,
2013-02-03 23:40:00,34.9,23.2,30.19,North,350,0.0,0.0,62,0.00,,,0.00,VWS V14.01,2013-02-04 04:40:00,
2013-02-03 23:46:00,34.7,23.4,30.20,North,350,0.0,0.0,63,0.00,,,0.00,VWS V14.01,2013-02-04 04:46:00,
2013-02-03 23:52:00,34.5,23.2,30.20,North,350,0.0,0.0,63,0.00,,,0.00,VWS V14.01,2013-02-04 04:52:00,
2013-02-03 23:58:00,34.4,23.5,30.20,North,350,0.0,0.0,64,0.00,,,0.00,VWS V14.01,2013-02-04 04:58:00,